createdAt,value
2022-08-09T00:00:34.938Z,99990.72
2022-08-09T00:03:11.691Z,99997.75
2022-08-09T00:06:18.465Z,99978.31
2022-08-09T00:08:48.704Z,99959.53
2022-08-09T00:11:24.317Z,99954.16
2022-08-09T00:13:53.360Z,99939.25
2022-08-09T00:16:25.910Z,99920.75
2022-08-09T00:19:10.175Z,99917.34
2022-08-09T00:21:38.732Z,99948.75
2022-08-09T00:24:27.517Z,99939.59
2022-08-09T00:26:56.032Z,99928.09
2022-08-09T00:29:39.946Z,99910.63
2022-08-09T00:32:12.568Z,99909.69
2022-08-09T00:34:40.015Z,99920.41
2022-08-09T00:37:19.153Z,99936.03
2022-08-09T00:40:13.691Z,99917.28
2022-08-09T00:44:19.479Z,99930.06
2022-08-09T00:45:22.263Z,99934.69
2022-08-09T00:47:51.339Z,99911.00
2022-08-09T00:50:18.984Z,99931.84
2022-08-09T00:52:46.154Z,99930.78
2022-08-09T00:55:32.705Z,99935.88
2022-08-09T00:58:00.701Z,99913.91
2022-08-09T01:00:28.385Z,99941.44
2022-08-09T01:03:14.612Z,99935.66
2022-08-09T01:05:55.459Z,99939.59
2022-08-09T01:08:49.728Z,99953.41
2022-08-09T01:11:39.963Z,99955.22
2022-08-09T01:17:58.359Z,99953.56
2022-08-09T01:20:34.866Z,99972.47
2022-08-09T01:24:02.838Z,99960.47
2022-08-09T01:26:55.464Z,99959.50
2022-08-09T01:29:41.128Z,99952.28
2022-08-09T01:32:46.081Z,99953.94
2022-08-09T01:35:28.541Z,99942.31
2022-08-09T01:38:15.835Z,99918.34
2022-08-09T01:41:10.787Z,99939.72
2022-08-09T01:43:55.954Z,99932.53
2022-08-09T01:46:42.735Z,99958.94
2022-08-09T01:49:17.661Z,99941.19
2022-08-09T01:51:55.441Z,99956.56
2022-08-09T01:54:28.359Z,99964.38
2022-08-09T01:57:04.414Z,99976.47
2022-08-09T01:59:32.735Z,99974.56
2022-08-09T02:02:10.739Z,99972.63
2022-08-09T02:04:45.407Z,99950.50
2022-08-09T02:08:35.716Z,99972.25
2022-08-09T02:10:15.460Z,99964.50
2022-08-09T02:12:47.261Z,99974.25
2022-08-09T02:15:19.882Z,99974.13
2022-08-09T02:18:00.685Z,99981.16
2022-08-09T02:20:43.760Z,99984.25
2022-08-09T02:23:45.170Z,99993.38
2022-08-09T02:26:25.228Z,99962.50
2022-08-09T02:29:10.841Z,99972.50
2022-08-09T02:31:42.320Z,99965.31
2022-08-09T02:37:11.987Z,99964.03
2022-08-09T02:39:45.122Z,99927.09
2022-08-09T02:42:29.299Z,99953.28
2022-08-09T02:45:02.305Z,99953.44
2022-08-09T02:47:57.239Z,99978.25
2022-08-09T02:50:29.637Z,99942.75
2022-08-09T02:53:02.081Z,99986.50
2022-08-09T02:55:46.289Z,99955.09
2022-08-09T02:58:32.878Z,99997.06
2022-08-09T03:01:08.043Z,99991.81
2022-08-09T03:04:18.011Z,99980.13
2022-08-09T03:06:27.635Z,99975.13
2022-08-09T03:08:57.261Z,99994.13
2022-08-09T03:12:04.258Z,99978.84
2022-08-09T03:14:14.249Z,100001.34
2022-08-09T03:16:44.998Z,99990.81
2022-08-09T03:19:57.775Z,100005.13
2022-08-09T03:22:12.096Z,99998.38
2022-08-09T03:25:05.880Z,99992.28
2022-08-09T03:27:44.775Z,99974.53
2022-08-09T03:30:14.266Z,99989.38
2022-08-09T03:32:59.769Z,99984.69
2022-08-09T03:36:11.856Z,100005.13
2022-08-09T03:38:16.027Z,99990.72
2022-08-09T03:40:58.393Z,100011.13
2022-08-09T03:43:31.547Z,100010.91
2022-08-09T03:46:27.269Z,100002.22
2022-08-09T03:48:59.283Z,100014.50
2022-08-09T03:51:56.727Z,99992.50
2022-08-09T03:54:29.559Z,100003.34
2022-08-09T03:57:00.137Z,100009.19
2022-08-09T03:59:42.757Z,99951.88
2022-08-09T04:02:19.927Z,100006.84
2022-08-09T04:04:56.075Z,100005.06
2022-08-09T04:07:47.608Z,100014.84
2022-08-09T04:10:33.258Z,100008.03
2022-08-09T04:14:36.640Z,99902.06
2022-08-09T04:16:37.001Z,100010.03
2022-08-09T04:19:10.994Z,99979.19
2022-08-09T04:21:50.099Z,99982.56
2022-08-09T04:25:10.139Z,99933.66
2022-08-09T04:28:05.212Z,99926.78
2022-08-09T04:30:44.991Z,100000.31
2022-08-09T04:33:33.875Z,99967.19
2022-08-09T04:36:25.356Z,99990.78
2022-08-09T04:38:53.983Z,99963.47
2022-08-09T04:41:23.756Z,99957.53
2022-08-09T04:44:05.121Z,99961.22
2022-08-09T04:46:38.181Z,99999.22
2022-08-09T04:49:30.199Z,99997.22
2022-08-09T04:52:07.581Z,99996.97
2022-08-09T04:54:37.221Z,99994.72
2022-08-09T04:57:04.891Z,99997.34
2022-08-09T04:59:36.624Z,100002.00
2022-08-09T05:02:04.093Z,99974.84
2022-08-09T05:04:33.844Z,99986.50
2022-08-09T05:07:01.125Z,99975.19
2022-08-09T05:09:42.263Z,99942.09
2022-08-09T05:12:17.020Z,99983.38
2022-08-09T05:14:44.126Z,99968.31
2022-08-09T05:18:36.627Z,99945.41
2022-08-09T05:19:59.119Z,99917.97
2022-08-09T05:22:33.355Z,99958.44
2022-08-09T05:25:05.116Z,99952.25
2022-08-09T05:27:32.246Z,99959.72
2022-08-09T05:29:59.393Z,99983.78
2022-08-09T05:32:31.102Z,99962.69
2022-08-09T05:34:59.989Z,99962.09
2022-08-09T05:37:27.141Z,99981.72
2022-08-09T05:39:55.516Z,99989.00
2022-08-09T05:42:28.157Z,99972.66
2022-08-09T05:44:56.349Z,99960.47
2022-08-09T05:47:25.411Z,99967.81
2022-08-09T05:50:23.942Z,99942.81
2022-08-09T05:52:44.513Z,99969.81
2022-08-09T05:55:23.922Z,99942.00
2022-08-09T05:57:56.460Z,99983.56
2022-08-09T06:00:32.861Z,99944.16
2022-08-09T06:03:10.830Z,99969.28
2022-08-09T06:05:57.219Z,99962.34
2022-08-09T06:08:28.776Z,99945.06
2022-08-09T06:10:58.174Z,99952.94
2022-08-09T06:13:34.165Z,99958.50
2022-08-09T06:16:04.858Z,99917.84
2022-08-09T06:18:33.400Z,99957.06
2022-08-09T06:21:01.601Z,99961.44
2022-08-09T06:23:58.598Z,99966.66
2022-08-09T06:26:21.085Z,99943.94
2022-08-09T06:28:59.256Z,99961.75
2022-08-09T06:31:31.349Z,99958.03
2022-08-09T06:34:07.336Z,99945.25
2022-08-09T06:36:34.521Z,99928.03
2022-08-09T06:39:02.631Z,99965.25
2022-08-09T06:42:08.199Z,99965.88
2022-08-09T06:44:25.495Z,99946.31
2022-08-09T06:46:55.420Z,99965.50
2022-08-09T06:49:44.671Z,99974.59
2022-08-09T06:52:15.729Z,99931.50
2022-08-09T06:54:44.185Z,99940.16
2022-08-09T06:57:14.384Z,99972.78
2022-08-09T07:00:54.523Z,99935.13
2022-08-09T07:02:32.255Z,99993.28
2022-08-09T07:05:01.390Z,99993.34
2022-08-09T07:08:00.551Z,99966.03
2022-08-09T07:10:24.080Z,99929.34
2022-08-09T07:12:59.019Z,99979.50
2022-08-09T07:15:53.722Z,99992.69
2022-08-09T07:18:16.811Z,99968.69
2022-08-09T07:20:47.855Z,99984.16
2022-08-09T07:23:18.528Z,99957.72
2022-08-09T07:25:47.425Z,99974.53
2022-08-09T07:28:19.147Z,100006.47
2022-08-09T07:30:54.373Z,99982.00
2022-08-09T07:33:23.306Z,100002.06
2022-08-09T07:35:53.956Z,100007.41
2022-08-09T07:38:23.402Z,100007.72
2022-08-09T07:41:10.013Z,99988.03
2022-08-09T07:43:41.486Z,99992.75
2022-08-09T07:46:20.001Z,99989.47
2022-08-09T07:48:52.956Z,99988.81
2022-08-09T07:52:05.215Z,100006.47
2022-08-09T07:54:15.522Z,99974.44
2022-08-09T07:56:49.561Z,99998.22
2022-08-09T07:59:33.964Z,99997.38
2022-08-09T08:02:10.390Z,100010.34
2022-08-09T08:04:48.970Z,100006.66
2022-08-09T08:08:44.080Z,100005.03
2022-08-09T08:10:08.056Z,99980.94
2022-08-09T08:12:43.409Z,99999.53
2022-08-09T08:15:14.200Z,100011.28
2022-08-09T08:17:53.507Z,100006.13
2022-08-09T08:20:29.196Z,100006.97
2022-08-09T08:23:06.468Z,100012.94
2022-08-09T08:26:06.171Z,100006.94
2022-08-09T08:28:35.937Z,100005.63
2022-08-09T08:31:10.626Z,100003.63
2022-08-09T08:33:52.513Z,100011.25
2022-08-09T08:36:29.109Z,99999.31
2022-08-09T08:38:59.714Z,99974.34
2022-08-09T08:41:50.996Z,99999.00
2022-08-09T08:44:23.002Z,99983.41
2022-08-09T08:47:05.252Z,99996.44
2022-08-09T08:49:48.439Z,100005.94
2022-08-09T08:55:23.078Z,100005.75
2022-08-09T08:57:57.490Z,100010.31
2022-08-09T09:00:34.650Z,100006.44
2022-08-09T09:03:11.233Z,100018.72
2022-08-09T09:05:58.264Z,100017.75
2022-08-09T09:08:30.277Z,99999.34
2022-08-09T09:11:05.493Z,99997.22
2022-08-09T09:13:47.400Z,100009.94
2022-08-09T09:16:30.432Z,100014.28
2022-08-09T09:19:37.005Z,100005.19
2022-08-09T09:21:58.065Z,99999.47
2022-08-09T09:24:30.255Z,100008.41
2022-08-09T09:27:01.367Z,100002.03
2022-08-09T09:29:58.119Z,99997.75
2022-08-09T09:32:34.549Z,99967.38
2022-08-09T09:35:08.965Z,99992.94
2022-08-09T09:37:40.420Z,99964.34
2022-08-09T09:40:11.874Z,99992.47
2022-08-09T09:42:43.102Z,99986.56
2022-08-09T09:45:14.436Z,100004.03
2022-08-09T09:47:56.555Z,99963.94
2022-08-09T09:50:50.639Z,99997.78
2022-08-09T09:53:21.639Z,99997.72
2022-08-09T09:56:08.785Z,99986.53
2022-08-09T09:58:49.225Z,99967.00
2022-08-09T10:01:31.373Z,99990.09
2022-08-09T10:04:22.870Z,99962.22
2022-08-09T10:06:58.814Z,99989.78
2022-08-09T10:09:54.941Z,99990.38
2022-08-09T10:12:34.731Z,99976.94
2022-08-09T10:15:17.531Z,99979.72
2022-08-09T10:18:12.650Z,99983.19
2022-08-09T10:20:45.119Z,99978.13
2022-08-09T10:23:23.820Z,99981.06
2022-08-09T10:26:07.448Z,99990.75
2022-08-09T10:28:39.160Z,99992.44
2022-08-09T10:34:09.005Z,99991.25
2022-08-09T10:36:43.839Z,99996.34
2022-08-09T10:39:15.390Z,99988.63
2022-08-09T10:41:47.687Z,99992.56
2022-08-09T10:44:21.574Z,99994.66
2022-08-09T10:47:20.394Z,99995.56
2022-08-09T10:50:52.191Z,100009.28
2022-08-09T10:53:39.518Z,99995.72
2022-08-09T10:56:35.215Z,99989.00
2022-08-09T10:59:23.330Z,99995.91
2022-08-09T11:03:14.430Z,99995.59
2022-08-09T11:05:25.013Z,99993.72
2022-08-09T11:08:17.157Z,99973.59
2022-08-09T11:10:53.198Z,99983.66
2022-08-09T11:13:50.402Z,100001.72
2022-08-09T11:16:36.202Z,99990.75
2022-08-09T11:19:09.957Z,99984.16
2022-08-09T11:22:10.836Z,99998.75
2022-08-09T11:24:58.074Z,99997.56
2022-08-09T11:28:03.943Z,99998.75
2022-08-09T11:30:34.340Z,99999.13
2022-08-09T11:33:17.804Z,100003.09
2022-08-09T11:35:59.482Z,99988.56
2022-08-09T11:38:28.858Z,99987.25
2022-08-09T11:41:37.629Z,99979.03
2022-08-09T11:44:06.595Z,99961.44
2022-08-09T11:46:57.965Z,99975.28
2022-08-09T11:50:55.020Z,99977.41
2022-08-09T11:53:58.484Z,99975.38
2022-08-09T11:55:53.140Z,99978.03
2022-08-09T11:58:33.147Z,99985.44
2022-08-09T12:01:37.509Z,99978.50
2022-08-09T12:04:01.199Z,99985.25
2022-08-09T12:06:32.596Z,99975.78
2022-08-09T12:09:19.120Z,99988.03
2022-08-09T12:12:20.406Z,99986.19
2022-08-09T12:15:07.838Z,99971.28
2022-08-09T12:17:42.989Z,99984.59
2022-08-09T12:20:22.137Z,99987.50
2022-08-09T12:23:08.048Z,99993.56
2022-08-09T12:25:38.768Z,99995.00
2022-08-09T12:29:13.079Z,99968.75
2022-08-09T12:31:58.143Z,99973.94
2022-08-09T12:34:17.828Z,99976.16
2022-08-09T12:36:52.694Z,99973.00
2022-08-09T12:39:26.676Z,99979.16
2022-08-09T12:41:54.943Z,99971.34
2022-08-09T12:44:24.355Z,99975.78
2022-08-09T12:46:51.936Z,99971.72
2022-08-09T12:49:20.970Z,99963.78
2022-08-09T12:52:02.214Z,99976.84
2022-08-09T12:56:12.926Z,99984.81
2022-08-09T12:57:46.230Z,99971.13
2022-08-09T13:00:25.218Z,99976.34
2022-08-09T13:03:00.495Z,99975.25
2022-08-09T13:05:51.575Z,99964.44
2022-08-09T13:08:40.326Z,99954.78
2022-08-09T13:11:22.606Z,99972.91
2022-08-09T13:14:42.563Z,99971.63
2022-08-09T13:17:01.410Z,99967.66
2022-08-09T13:20:07.248Z,99965.94
2022-08-09T13:22:36.907Z,99952.63
2022-08-09T13:25:15.818Z,99937.91
2022-08-09T13:27:54.498Z,99960.03
2022-08-09T13:30:49.164Z,99947.84
2022-08-09T13:33:16.949Z,99939.53
2022-08-09T13:36:39.756Z,99957.69
2022-08-09T13:38:56.225Z,99955.19
2022-08-09T13:41:58.352Z,99956.09
2022-08-09T13:44:16.274Z,99931.63
2022-08-09T13:47:16.160Z,99967.34
2022-08-09T13:49:39.786Z,99924.25
2022-08-09T13:52:24.602Z,99920.81
2022-08-09T13:54:59.037Z,99952.78
2022-08-09T13:57:36.846Z,99925.28
2022-08-09T14:00:29.439Z,99965.38
2022-08-09T14:03:04.371Z,99942.53
2022-08-09T14:05:58.480Z,99957.22
2022-08-09T14:08:31.492Z,99872.00
2022-08-09T14:10:59.461Z,99970.34
2022-08-09T14:14:16.279Z,99967.00
2022-08-09T14:16:17.987Z,99948.56
2022-08-09T14:18:50.213Z,99974.56
2022-08-09T14:21:23.259Z,99976.28
2022-08-09T14:23:54.760Z,99959.88
2022-08-09T14:26:32.825Z,99973.53
2022-08-09T14:29:07.540Z,99938.72
2022-08-09T14:31:50.034Z,99979.72
2022-08-09T14:34:31.472Z,99971.34
2022-08-09T14:37:06.433Z,99967.84
2022-08-09T14:39:45.373Z,99986.72
2022-08-09T14:42:32.026Z,99985.53
2022-08-09T14:46:39.588Z,99987.56
2022-08-09T14:47:58.825Z,99977.97
2022-08-09T14:50:29.577Z,99969.63
2022-08-09T14:52:58.998Z,99982.09
2022-08-09T14:55:31.953Z,99987.03
2022-08-09T14:58:04.776Z,99985.69
2022-08-09T15:00:36.789Z,99988.50
2022-08-09T15:03:07.643Z,99988.50
2022-08-09T15:05:37.633Z,99988.16
2022-08-09T15:08:05.706Z,99976.97
2022-08-09T15:10:33.914Z,99991.59
2022-08-09T15:13:03.230Z,99983.38
2022-08-09T15:15:34.207Z,99986.44
2022-08-09T15:18:06.495Z,99972.66
2022-08-09T15:21:54.981Z,99980.63
2022-08-09T15:24:09.315Z,99967.31
2022-08-09T15:26:19.112Z,99971.19
2022-08-09T15:28:56.839Z,99965.03
2022-08-09T15:31:40.795Z,99953.09
2022-08-09T15:34:32.206Z,99964.59
2022-08-09T15:36:58.260Z,99933.47
2022-08-09T15:39:43.770Z,99952.22
2022-08-09T15:42:13.280Z,99975.13
2022-08-09T15:44:42.149Z,99971.97
2022-08-09T15:47:13.960Z,99971.47
2022-08-09T15:49:41.866Z,99970.03
2022-08-09T15:52:28.213Z,99977.75
2022-08-09T15:54:55.591Z,99959.22
2022-08-09T15:57:35.471Z,99969.22
2022-08-09T16:00:24.279Z,99961.69
2022-08-09T16:02:54.434Z,99951.56
2022-08-09T16:05:24.154Z,99956.94
2022-08-09T16:07:51.341Z,99980.00
2022-08-09T16:10:38.612Z,99961.00
2022-08-09T16:13:20.711Z,99977.78
2022-08-09T16:16:12.232Z,99977.69
2022-08-09T16:18:44.724Z,99969.22
2022-08-09T16:21:17.349Z,99964.81
2022-08-09T16:23:54.801Z,99982.75
2022-08-09T16:26:35.437Z,99980.28
2022-08-09T16:29:14.350Z,99990.63
2022-08-09T16:32:20.274Z,100000.41
2022-08-09T16:34:56.152Z,100002.94
2022-08-09T16:37:55.626Z,100008.34
2022-08-09T16:40:13.569Z,99977.78
2022-08-09T16:42:45.547Z,100001.56
2022-08-09T16:45:18.775Z,99982.91
2022-08-09T16:48:40.518Z,99995.06
2022-08-09T16:50:34.952Z,99999.50
2022-08-09T16:53:06.273Z,100009.28
2022-08-09T16:56:00.171Z,100004.28
2022-08-09T16:58:21.106Z,100005.63
2022-08-09T17:00:49.181Z,100017.25
2022-08-09T17:03:22.655Z,99994.91
2022-08-09T17:06:08.144Z,100026.41
2022-08-09T17:09:01.616Z,100030.78
2022-08-09T17:11:41.104Z,100027.84
2022-08-09T17:14:25.881Z,100022.00
2022-08-09T17:16:59.662Z,100021.63
2022-08-09T17:19:46.686Z,100028.25
2022-08-09T17:22:16.126Z,100024.25
2022-08-09T17:24:55.412Z,100043.09
2022-08-09T17:27:23.781Z,100026.00
2022-08-09T17:29:51.472Z,100040.94
2022-08-09T17:32:20.388Z,100026.69
2022-08-09T17:35:04.300Z,100034.22
2022-08-09T17:38:11.542Z,100033.88
2022-08-09T17:40:27.841Z,100035.84
2022-08-09T17:42:59.790Z,100024.25
2022-08-09T17:46:03.093Z,100033.22
2022-08-09T17:48:29.130Z,100037.06
2022-08-09T17:50:59.407Z,100037.31
2022-08-09T17:53:43.330Z,100027.25
2022-08-09T17:56:18.161Z,100022.78
2022-08-09T17:58:45.624Z,100029.38
2022-08-09T18:01:22.827Z,100026.19
2022-08-09T18:03:54.577Z,99983.47
2022-08-09T18:06:30.914Z,100016.13
2022-08-09T18:09:05.143Z,100016.56
2022-08-09T18:12:05.575Z,100017.75
2022-08-09T18:14:22.102Z,100009.72
2022-08-09T18:16:49.955Z,100009.28
2022-08-09T18:20:54.058Z,100005.81
2022-08-09T18:22:13.172Z,99994.84
2022-08-09T18:24:45.743Z,100024.56
2022-08-09T18:27:49.364Z,100010.84
2022-08-09T18:30:42.346Z,100017.94
2022-08-09T18:32:54.366Z,100022.81
2022-08-09T18:35:56.294Z,100021.88
2022-08-09T18:38:11.786Z,100016.53
2022-08-09T18:40:40.952Z,100020.16
2022-08-09T18:43:08.848Z,100019.41
2022-08-09T18:46:46.176Z,100012.59
2022-08-09T18:48:23.191Z,100018.72
2022-08-09T18:50:57.522Z,100018.50
2022-08-09T18:53:26.176Z,100016.13
2022-08-09T18:56:13.333Z,100026.88
2022-08-09T18:58:40.470Z,100023.25
2022-08-09T19:01:07.696Z,100019.03
2022-08-09T19:03:54.410Z,100015.50
2022-08-09T19:06:22.437Z,100023.50
2022-08-09T19:09:02.141Z,99992.53
2022-08-09T19:11:37.344Z,100020.91
2022-08-09T19:14:07.336Z,100025.81
2022-08-09T19:16:36.278Z,100029.88
2022-08-09T19:19:25.346Z,100026.81
2022-08-09T19:22:05.053Z,100029.84
2022-08-09T19:25:11.918Z,100027.47
2022-08-09T19:27:23.735Z,100026.09
2022-08-09T19:30:22.962Z,100009.00
2022-08-09T19:32:44.815Z,100024.75
2022-08-09T19:35:12.021Z,100020.19
2022-08-09T19:37:54.143Z,100019.25
2022-08-09T19:40:22.155Z,100018.41
2022-08-09T19:42:49.700Z,100019.59
2022-08-09T19:45:17.866Z,100008.00
2022-08-09T19:47:45.832Z,100013.00
2022-08-09T19:50:49.271Z,100023.69
2022-08-09T19:53:02.434Z,100023.44
2022-08-09T19:55:53.065Z,100019.84
2022-08-09T19:58:30.216Z,100001.31
2022-08-09T20:00:58.433Z,99997.31
2022-08-09T20:04:18.092Z,99978.19
2022-08-09T20:06:23.665Z,99992.28
2022-08-09T20:08:56.789Z,100003.41
2022-08-09T20:11:26.864Z,99989.06
2022-08-09T20:13:55.996Z,100009.97
2022-08-09T20:16:32.802Z,100008.94
2022-08-09T20:19:48.704Z,100016.63
2022-08-09T20:21:57.282Z,99967.53
2022-08-09T20:24:29.808Z,99986.63
2022-08-09T20:27:01.588Z,99996.16
2022-08-09T20:29:36.922Z,100007.13
2022-08-09T20:32:30.112Z,100003.53
2022-08-09T20:34:53.873Z,99986.16
2022-08-09T20:37:21.454Z,99989.78
2022-08-09T20:40:15.081Z,100020.16
2022-08-09T20:42:38.208Z,99932.78
2022-08-09T20:46:01.452Z,100016.84
2022-08-09T20:47:54.982Z,100007.03
2022-08-09T20:50:48.183Z,99991.00
2022-08-09T20:53:22.742Z,99997.19
2022-08-09T20:56:00.850Z,100017.31
2022-08-09T20:58:32.627Z,99984.22
2022-08-09T21:01:32.538Z,100012.66
2022-08-09T21:04:08.216Z,100023.22
2022-08-09T21:06:42.517Z,100011.63
2022-08-09T21:09:13.450Z,99983.56
2022-08-09T21:14:30.883Z,99990.78
2022-08-09T21:17:00.525Z,100022.56
2022-08-09T21:20:17.131Z,100020.22
2022-08-09T21:22:37.722Z,100019.69
2022-08-09T21:25:21.181Z,100002.16
2022-08-09T21:27:52.549Z,100015.28
2022-08-09T21:30:22.331Z,100007.88
2022-08-09T21:32:50.832Z,100016.00
2022-08-09T21:35:18.093Z,100022.28
2022-08-09T21:37:59.896Z,100023.94
2022-08-09T21:40:30.807Z,100020.09
2022-08-09T21:43:00.743Z,100002.00
2022-08-09T21:45:28.487Z,100010.44
2022-08-09T21:47:59.059Z,99996.03
2022-08-09T21:50:35.980Z,99997.81
2022-08-09T21:53:24.091Z,99991.19
2022-08-09T21:55:56.617Z,100013.34
2022-08-09T21:58:29.102Z,99996.13
2022-08-09T22:00:58.840Z,99983.53
2022-08-09T22:03:26.321Z,99979.59
2022-08-09T22:05:55.452Z,99990.75
2022-08-09T22:08:26.886Z,99884.63
2022-08-09T22:11:00.642Z,99960.53
2022-08-09T22:13:45.561Z,99935.47
2022-08-09T22:16:12.770Z,99993.06
2022-08-09T22:18:54.554Z,99893.06
2022-08-09T22:21:45.407Z,99974.03
2022-08-09T22:24:16.636Z,99976.03
2022-08-09T22:26:51.279Z,99983.81
2022-08-09T22:29:24.131Z,99998.50
2022-08-09T22:31:57.420Z,99925.28
2022-08-09T22:34:27.034Z,99995.91
2022-08-09T22:36:56.505Z,99960.31
2022-08-09T22:39:58.121Z,99962.38
2022-08-09T22:42:21.023Z,99992.19
2022-08-09T22:48:05.767Z,99966.56
2022-08-09T22:48:15.228Z,99988.88
2022-08-09T22:50:29.995Z,99962.72
2022-08-09T22:52:58.731Z,99921.03
2022-08-09T22:55:39.680Z,99959.66
2022-08-09T22:58:30.654Z,99938.63
2022-08-09T23:01:02.105Z,99933.25
2022-08-09T23:04:02.895Z,99994.38
2022-08-09T23:06:34.751Z,99952.72
2022-08-09T23:09:05.602Z,99911.94
2022-08-09T23:11:32.921Z,99985.88
2022-08-09T23:14:00.235Z,99969.47
2022-08-09T23:16:27.344Z,99969.72
2022-08-09T23:18:54.410Z,99976.53
2022-08-09T23:21:23.956Z,99984.34
2022-08-09T23:24:01.666Z,99996.72
2022-08-09T23:26:38.127Z,99989.25
2022-08-09T23:29:07.295Z,100015.78
2022-08-09T23:31:34.836Z,99990.06
2022-08-09T23:34:02.476Z,99998.56
2022-08-09T23:36:32.196Z,99981.81
2022-08-09T23:38:59.625Z,99997.72
2022-08-09T23:41:28.035Z,100007.09
2022-08-09T23:43:57.405Z,100017.22
2022-08-09T23:46:24.586Z,100015.78
2022-08-09T23:48:51.711Z,99991.19
2022-08-09T23:51:18.800Z,100004.13
2022-08-09T23:53:45.863Z,99991.91
2022-08-09T23:56:16.683Z,100016.72
2022-08-09T23:59:04.105Z,100010.56
